Time;durP1;ratioP1;P1;durP2;ratioP2;P2;SDS_P1;SDS_P2;PMS_P1;PMS_P2;Temp;Humidity;BMP_temperature;BMP_pressure;BME280_temperature;BME280_humidity;BME280_pressure;Samples;Min_cycle;Max_cycle;Signal;HPM_P1;HPM_P2
2024/01/03 00:00:28;;;;;;;24.48;3.20;;;;;;;9.34;100.00;98558.38;5040072;28;20064;-76
2024/01/03 00:02:55;;;;;;;25.85;3.78;;;;;;;9.33;100.00;98588.91;5040562;28;20305;-75
2024/01/03 00:05:23;;;;;;;25.33;3.55;;;;;;;9.35;100.00;98568.72;5045480;28;20032;-76
2024/01/03 00:07:49;;;;;;;30.75;3.90;;;;;;;9.38;100.00;98593.78;5042287;28;20060;-76
2024/01/03 00:10:41;;;;;;;31.02;4.95;;;;;;;9.36;100.00;98609.56;5046119;28;20286;-76
2024/01/03 00:13:37;;;;;;;25.25;3.42;;;;;;;9.39;100.00;98593.66;5042829;28;20067;-76
2024/01/03 00:16:06;;;;;;;23.77;3.58;;;;;;;9.43;100.00;98619.59;5042631;28;20248;-75
2024/01/03 00:18:51;;;;;;;34.25;4.18;;;;;;;9.38;100.00;98628.56;5043126;28;20055;-76
2024/01/03 00:21:26;;;;;;;31.90;3.95;;;;;;;9.38;100.00;98623.34;5044497;28;20032;-76
2024/01/03 00:23:55;;;;;;;22.38;3.60;;;;;;;9.38;100.00;98615.50;5042406;28;20032;-76
2024/01/03 00:26:22;;;;;;;20.80;3.33;;;;;;;9.41;100.00;98611.84;5045503;28;20104;-76
2024/01/03 00:28:48;;;;;;;19.75;3.30;;;;;;;9.44;100.00;98616.00;5034389;28;20248;-76
2024/01/03 00:31:28;;;;;;;26.73;4.05;;;;;;;9.41;100.00;98657.09;5023925;28;20036;-76
2024/01/03 00:33:55;;;;;;;17.80;3.10;;;;;;;9.45;100.00;98620.31;5025283;28;20065;-75
2024/01/03 00:36:21;;;;;;;28.65;3.78;;;;;;;9.46;100.00;98659.38;5024960;28;20037;-76
2024/01/03 00:38:46;;;;;;;29.67;3.85;;;;;;;9.44;100.00;98634.31;5028557;28;20095;-75
2024/01/03 00:41:12;;;;;;;31.42;4.22;;;;;;;9.44;100.00;98658.66;5024418;28;20038;-76
2024/01/03 00:43:39;;;;;;;28.60;5.38;;;;;;;9.44;100.00;98683.94;5028665;28;20305;-76
2024/01/03 00:46:05;;;;;;;32.17;3.83;;;;;;;9.47;100.00;98652.38;5026328;28;20245;-76
2024/01/03 00:48:32;;;;;;;22.92;4.13;;;;;;;9.41;100.00;98651.88;5027670;28;20961;-75
2024/01/03 00:50:57;;;;;;;22.67;4.32;;;;;;;9.38;100.00;98652.06;5026992;28;20249;-76
2024/01/03 00:53:24;;;;;;;26.88;3.88;;;;;;;9.36;100.00;98677.47;5025826;28;20143;-76
2024/01/03 00:55:50;;;;;;;25.73;3.90;;;;;;;9.36;100.00;98672.25;5025435;28;20364;-76
2024/01/03 00:58:15;;;;;;;20.52;3.42;;;;;;;9.38;100.00;98693.03;5026142;28;20025;-76
2024/01/03 01:00:41;;;;;;;23.13;4.00;;;;;;;9.43;100.00;98674.44;5023524;28;20026;-76
2024/01/03 01:03:06;;;;;;;27.73;4.65;;;;;;;9.40;100.00;98735.56;5022532;28;20038;-76
2024/01/03 01:05:32;;;;;;;25.65;3.70;;;;;;;9.39;100.00;98685.09;5028217;28;20131;-75
2024/01/03 01:07:58;;;;;;;31.15;3.63;;;;;;;9.40;100.00;98685.94;5024776;28;20045;-76
2024/01/03 01:10:23;;;;;;;36.60;4.80;;;;;;;9.41;100.00;98698.06;5030082;28;20032;-76
2024/01/03 01:12:49;;;;;;;19.52;3.38;;;;;;;9.44;100.00;98699.63;5023890;28;20049;-76
2024/01/03 01:15:14;;;;;;;24.45;4.57;;;;;;;9.45;100.00;98681.22;5023039;28;20275;-76
2024/01/03 01:17:41;;;;;;;24.65;3.95;;;;;;;9.44;100.00;98704.84;5031723;28;20037;-76
2024/01/03 01:20:06;;;;;;;26.30;3.60;;;;;;;9.40;100.00;98710.31;5029863;28;20049;-76
2024/01/03 01:22:32;;;;;;;33.92;4.38;;;;;;;9.43;100.00;98713.63;5030268;28;20156;-75
2024/01/03 01:24:57;;;;;;;26.15;4.13;;;;;;;9.38;100.00;98720.00;5029239;28;20250;-76
2024/01/03 01:27:22;;;;;;;36.95;4.53;;;;;;;9.37;100.00;98733.19;5028632;28;20325;-75
2024/01/03 01:29:48;;;;;;;26.52;4.53;;;;;;;9.38;100.00;98722.59;5028291;28;20041;-75
2024/01/03 01:32:13;;;;;;;25.77;3.53;;;;;;;9.38;100.00;98738.28;5025007;28;20044;-75
2024/01/03 01:34:38;;;;;;;20.33;3.95;;;;;;;9.41;100.00;98739.88;5032746;28;20039;-76
2024/01/03 01:37:04;;;;;;;28.52;4.00;;;;;;;9.43;100.00;98739.75;5048923;28;20072;-76
2024/01/03 01:39:29;;;;;;;22.65;4.22;;;;;;;9.44;100.00;98733.56;5043115;28;20037;-76
2024/01/03 01:41:54;;;;;;;41.10;4.80;;;;;;;9.39;100.00;98736.53;5045507;28;20037;-76
2024/01/03 01:44:20;;;;;;;20.73;3.45;;;;;;;9.39;100.00;98741.75;5024363;28;20103;-75
2024/01/03 01:46:45;;;;;;;22.98;3.42;;;;;;;9.37;100.00;98751.47;5035636;28;20068;-76
2024/01/03 01:49:12;;;;;;;23.48;3.33;;;;;;;9.39;100.00;98760.88;5042263;28;20063;-75
2024/01/03 01:51:38;;;;;;;24.25;3.60;;;;;;;9.39;100.00;98766.09;5036380;28;20048;-76
2024/01/03 01:54:04;;;;;;;24.33;3.75;;;;;;;9.37;100.00;98749.69;5044246;28;20044;-75
2024/01/03 01:56:32;;;;;;;26.52;4.90;;;;;;;9.37;100.00;98775.00;5042355;28;20127;-76
2024/01/03 01:58:58;;;;;;;17.98;2.95;;;;;;;9.34;100.00;98767.34;5035293;28;20294;-76
2024/01/03 02:01:24;;;;;;;16.50;3.95;;;;;;;9.31;100.00;98775.38;5035719;28;20087;-76
2024/01/03 02:03:50;;;;;;;29.10;4.10;;;;;;;9.29;100.00;98778.09;5035692;28;20037;-76
2024/01/03 02:06:16;;;;;;;17.65;3.33;;;;;;;9.30;100.00;98776.34;5036097;28;20374;-76
2024/01/03 02:08:41;;;;;;;30.30;4.78;;;;;;;9.30;100.00;98768.50;5027798;28;20033;-76
2024/01/03 02:11:07;;;;;;;29.58;3.67;;;;;;;9.27;100.00;98764.31;5037886;28;20225;-76
2024/01/03 02:13:32;;;;;;;30.40;4.30;;;;;;;9.25;100.00;98781.88;5032052;28;20060;-76
2024/01/03 02:15:58;;;;;;;32.28;4.55;;;;;;;9.25;100.00;98781.88;5048883;28;20155;-76
2024/01/03 02:18:25;;;;;;;27.83;3.78;;;;;;;9.31;100.00;98783.22;5032336;28;20029;-76
2024/01/03 02:20:52;;;;;;;33.70;4.07;;;;;;;9.29;100.00;98778.09;5035409;28;20276;-76
2024/01/03 02:23:17;;;;;;;27.63;3.90;;;;;;;9.26;100.00;98793.16;5039228;28;20044;-76
2024/01/03 02:25:43;;;;;;;22.77;3.58;;;;;;;9.27;100.00;98779.97;5036205;28;20095;-76
2024/01/03 02:28:12;;;;;;;22.30;4.05;;;;;;;9.24;100.00;98767.16;5033701;28;20041;-76
2024/01/03 02:30:37;;;;;;;;;;;;;;;9.23;100.00;98776.75;5029824;28;20033;-76
2024/01/03 02:33:04;;;;;;;21.67;3.28;;;;;;;9.26;100.00;98782.69;5033686;28;19964;-76
2024/01/03 02:35:29;;;;;;;15.85;2.67;;;;;;;9.29;100.00;98799.00;5035835;28;20226;-76
2024/01/03 02:37:54;;;;;;;16.02;2.67;;;;;;;9.31;100.00;98785.84;5035425;28;20064;-76
2024/01/03 02:40:20;;;;;;;24.38;4.32;;;;;;;9.31;100.00;98788.44;5032005;28;20226;-76
2024/01/03 02:42:45;;;;;;;30.30;3.53;;;;;;;9.29;100.00;98785.94;5034351;28;20352;-75
2024/01/03 02:45:10;;;;;;;31.42;4.40;;;;;;;9.31;100.00;98804.94;5026873;28;20033;-76
2024/01/03 02:47:36;;;;;;;24.00;3.75;;;;;;;9.29;100.00;98812.06;5031231;28;20360;-75
2024/01/03 02:50:01;;;;;;;25.15;3.90;;;;;;;9.30;100.00;98798.06;5034625;28;20037;-76
2024/01/03 02:52:27;;;;;;;27.30;3.88;;;;;;;9.33;100.00;98802.25;5032235;28;20059;-75
2024/01/03 02:54:53;;;;;;;27.83;4.38;;;;;;;9.34;100.00;98801.31;5029208;28;20272;-76
2024/01/03 02:57:18;;;;;;;30.50;3.85;;;;;;;9.35;100.00;98798.59;5045729;28;20040;-75
2024/01/03 02:59:43;;;;;;;19.45;3.40;;;;;;;9.36;100.00;98805.47;5042091;28;20040;-76
2024/01/03 03:02:09;;;;;;;27.48;4.07;;;;;;;9.36;100.00;98812.50;5027853;28;20041;-76
2024/01/03 03:04:34;;;;;;;28.55;4.85;;;;;;;9.38;100.00;98800.97;5034010;28;20033;-75
2024/01/03 03:06:59;;;;;;;26.23;3.97;;;;;;;9.39;100.00;98794.00;5034421;28;20348;-73
2024/01/03 03:09:24;;;;;;;28.50;4.15;;;;;;;9.38;100.00;98797.53;5031940;28;20033;-73
2024/01/03 03:11:50;;;;;;;30.38;4.32;;;;;;;9.38;100.00;98805.38;5040775;28;20041;-73
2024/01/03 03:14:15;;;;;;;38.97;5.32;;;;;;;9.38;100.00;98797.53;5034482;28;20057;-73
2024/01/03 03:16:41;;;;;;;32.08;4.28;;;;;;;9.39;100.00;98799.22;5032960;28;20033;-73
2024/01/03 03:19:06;;;;;;;37.72;4.60;;;;;;;9.34;100.00;98799.53;5034890;28;20281;-73
2024/01/03 03:21:35;;;;;;;31.85;5.88;;;;;;;9.34;100.00;98794.31;5035709;28;20037;-73
2024/01/03 03:24:03;;;;;;;38.25;5.00;;;;;;;9.36;100.00;98805.47;5021458;28;20044;-74
2024/01/03 03:26:28;;;;;;;36.70;4.82;;;;;;;9.36;100.00;98802.88;5034763;28;20041;-74
2024/01/03 03:28:54;;;;;;;39.97;4.88;;;;;;;9.38;100.00;98798.38;5038562;28;20029;-74
2024/01/03 03:31:19;;;;;;;32.70;4.47;;;;;;;9.39;100.00;98792.22;5032713;28;20051;-73
2024/01/03 03:33:45;;;;;;;41.45;5.07;;;;;;;9.41;100.00;98794.72;5036696;28;20347;-74
2024/01/03 03:36:14;;;;;;;47.13;6.60;;;;;;;9.39;100.00;98805.28;5043835;28;20079;-74
2024/01/03 03:38:40;;;;;;;31.35;5.53;;;;;;;9.41;100.00;98813.00;5031146;28;20041;-74
2024/01/03 03:41:12;;;;;;;40.80;5.20;;;;;;;9.40;100.00;98811.34;5029344;28;20254;-74
2024/01/03 03:43:39;;;;;;;37.10;4.45;;;;;;;9.42;100.00;98804.22;5049954;28;20279;-74
2024/01/03 03:46:07;;;;;;;32.17;4.72;;;;;;;9.41;100.00;98810.41;5025615;28;20524;-74
2024/01/03 03:48:33;;;;;;;40.90;5.00;;;;;;;9.36;100.00;98807.25;5035968;28;20297;-74
2024/01/03 03:51:00;;;;;;;33.53;5.78;;;;;;;9.33;100.00;98813.53;5033089;28;20284;-74
2024/01/03 03:53:26;;;;;;;35.78;4.75;;;;;;;9.32;100.00;98824.91;5045082;28;20026;-73
2024/01/03 03:55:51;;;;;;;35.00;5.18;;;;;;;9.30;100.00;98818.97;5032055;28;20044;-74
2024/01/03 03:58:16;;;;;;;28.17;3.78;;;;;;;9.28;100.00;98820.84;5033242;28;20245;-74
2024/01/03 04:00:42;;;;;;;42.60;6.13;;;;;;;9.27;100.00;98819.16;5033154;28;20044;-74
2024/01/03 04:03:08;;;;;;;33.60;4.68;;;;;;;9.24;100.00;98814.16;5052464;28;20079;-74
2024/01/03 04:05:37;;;;;;;39.90;5.43;;;;;;;9.23;100.00;98815.09;5035453;28;20083;-74
2024/01/03 04:08:03;;;;;;;37.22;5.25;;;;;;;9.22;100.00;98827.31;5019347;28;20041;-74
2024/01/03 04:10:29;;;;;;;38.60;5.22;;;;;;;9.22;100.00;98821.25;5030028;28;20125;-74
2024/01/03 04:12:55;;;;;;;47.70;5.32;;;;;;;9.22;100.00;98824.72;5028999;28;20060;-74
2024/01/03 04:15:22;;;;;;;44.38;5.68;;;;;;;9.27;100.00;98815.72;5018688;28;20038;-74
2024/01/03 04:17:47;;;;;;;41.58;5.95;;;;;;;9.26;100.00;98822.72;5035212;28;20056;-74
2024/01/03 04:20:13;;;;;;;40.67;6.53;;;;;;;9.29;100.00;98830.34;5019033;28;20030;-74
2024/01/03 04:22:43;;;;;;;59.17;6.82;;;;;;;9.31;100.00;98825.03;5033443;28;20055;-74
2024/01/03 04:25:09;;;;;;;42.13;6.00;;;;;;;9.33;100.00;98825.75;5028348;28;20240;-74
2024/01/03 04:27:34;;;;;;;38.45;5.00;;;;;;;9.36;100.00;98828.16;5033086;28;20061;-74
2024/01/03 04:30:00;;;;;;;47.58;7.03;;;;;;;9.39;100.00;98826.19;5016717;28;20115;-74
2024/01/03 04:32:25;;;;;;;41.08;6.78;;;;;;;9.37;100.00;98827.22;5033099;28;20037;-74
2024/01/03 04:34:50;;;;;;;42.78;4.80;;;;;;;9.41;100.00;98821.69;5027692;28;20024;-74
2024/01/03 04:37:16;;;;;;;40.15;5.13;;;;;;;9.43;100.00;98823.38;5032728;28;20037;-74
2024/01/03 04:39:41;;;;;;;46.35;5.68;;;;;;;9.43;100.00;98828.59;5023152;28;20044;-74
2024/01/03 04:42:06;;;;;;;30.85;4.25;;;;;;;9.42;100.00;98819.91;5023234;28;20048;-74
2024/01/03 04:44:33;;;;;;;38.88;5.70;;;;;;;9.45;100.00;98826.72;5026087;28;20029;-74
2024/01/03 04:46:58;;;;;;;38.03;5.15;;;;;;;9.44;100.00;98825.88;5034607;28;20037;-74
2024/01/03 04:49:24;;;;;;;28.92;4.53;;;;;;;9.45;100.00;98818.88;5041746;28;20229;-74
2024/01/03 04:51:49;;;;;;;40.00;5.32;;;;;;;9.45;100.00;98808.41;5048443;28;20250;-74
2024/01/03 04:54:14;;;;;;;33.33;4.72;;;;;;;9.46;100.00;98836.19;5027189;28;20271;-74
2024/01/03 04:56:40;;;;;;;31.45;4.78;;;;;;;9.44;100.00;98825.88;5046603;28;20339;-74
2024/01/03 04:59:05;;;;;;;32.72;4.32;;;;;;;9.39;100.00;98823.56;5028895;28;20033;-74
2024/01/03 05:01:30;;;;;;;31.23;4.47;;;;;;;9.36;100.00;98823.75;5039368;28;20029;-74
2024/01/03 05:03:56;;;;;;;39.38;4.75;;;;;;;9.34;100.00;98835.28;5028559;28;20251;-74
2024/01/03 05:06:21;;;;;;;29.20;4.28;;;;;;;9.32;100.00;98827.53;5031992;28;20232;-74
2024/01/03 05:08:46;;;;;;;31.67;3.75;;;;;;;9.31;100.00;98825.84;5038876;28;20442;-74
2024/01/03 05:11:12;;;;;;;27.25;3.75;;;;;;;9.30;100.00;98825.97;5048319;28;20029;-74
2024/01/03 05:13:37;;;;;;;27.73;3.85;;;;;;;9.32;100.00;98839.75;5025134;28;20052;-74
2024/01/03 05:16:03;;;;;;;20.08;3.20;;;;;;;9.27;100.00;98841.84;5028364;28;20556;-74
2024/01/03 05:18:28;;;;;;;25.60;3.30;;;;;;;9.24;100.00;98832.44;5031961;28;20048;-74
2024/01/03 05:20:54;;;;;;;28.13;3.75;;;;;;;9.22;100.00;98823.84;5029961;28;20100;-74
2024/01/03 05:23:19;;;;;;;22.98;3.05;;;;;;;9.24;100.00;98822.00;5049116;28;20037;-74
2024/01/03 05:25:45;;;;;;;31.10;3.85;;;;;;;9.19;100.00;98826.69;5044283;28;20041;-74
2024/01/03 05:28:10;;;;;;;24.80;3.97;;;;;;;9.18;100.00;98827.63;5036393;28;20075;-74
2024/01/03 05:30:35;;;;;;;21.25;3.08;;;;;;;9.17;100.00;98829.41;5016208;28;20150;-74
2024/01/03 05:33:01;;;;;;;27.88;3.25;;;;;;;9.17;100.00;98842.47;5034435;28;20029;-74
2024/01/03 05:35:26;;;;;;;13.43;2.22;;;;;;;9.19;100.00;98837.16;5033587;28;20044;-74
2024/01/03 05:37:52;;;;;;;14.10;3.05;;;;;;;9.18;100.00;98838.06;5047727;28;20037;-74
2024/01/03 05:40:18;;;;;;;16.90;2.63;;;;;;;9.17;100.00;98831.19;5035134;28;20063;-74
2024/01/03 05:42:44;;;;;;;23.60;3.35;;;;;;;9.15;100.00;98833.91;5051217;28;20062;-74
2024/01/03 05:45:09;;;;;;;19.33;2.28;;;;;;;9.17;100.00;98841.63;5034640;28;20092;-74
2024/01/03 05:47:35;;;;;;;18.60;2.13;;;;;;;9.19;100.00;98847.59;5025636;28;20059;-74
2024/01/03 05:50:00;;;;;;;12.13;2.05;;;;;;;9.16;100.00;98830.34;5032785;28;20404;-74
2024/01/03 05:52:25;;;;;;;15.73;1.92;;;;;;;9.18;100.00;98843.28;5025318;28;20041;-74
2024/01/03 05:54:51;;;;;;;25.95;3.13;;;;;;;9.15;100.00;98830.44;5031744;28;20075;-74
2024/01/03 05:57:16;;;;;;;9.07;1.77;;;;;;;9.14;100.00;98853.09;5047579;28;20043;-74
2024/01/03 05:59:42;;;;;;;14.75;2.10;;;;;;;9.15;100.00;98831.28;5037169;28;20037;-74
2024/01/03 06:02:07;;;;;;;14.05;2.47;;;;;;;9.15;100.00;98831.28;5043528;28;20205;-74
2024/01/03 06:04:32;;;;;;;9.95;2.60;;;;;;;9.13;100.00;98840.16;5043603;28;20041;-74
2024/01/03 06:06:58;;;;;;;19.98;2.55;;;;;;;9.12;100.00;98839.31;5035102;28;20037;-74
2024/01/03 06:09:24;;;;;;;9.93;2.40;;;;;;;9.09;100.00;98846.53;5037548;28;20041;-74
2024/01/03 06:11:49;;;;;;;13.95;2.22;;;;;;;9.06;100.00;98857.16;5038843;28;20064;-74
2024/01/03 06:14:14;;;;;;;21.88;3.00;;;;;;;9.05;100.00;98843.28;5037483;28;20352;-74
2024/01/03 06:16:40;;;;;;;14.38;2.30;;;;;;;9.01;100.00;98841.81;5031878;28;20324;-74
2024/01/03 06:19:05;;;;;;;18.75;2.15;;;;;;;8.99;100.00;98856.75;5031382;28;20404;-74
2024/01/03 06:21:32;;;;;;;27.67;4.07;;;;;;;8.96;100.00;98842.09;5027438;28;20388;-74
2024/01/03 06:23:58;;;;;;;20.83;3.00;;;;;;;8.97;100.00;98856.00;5022039;28;20244;-74
2024/01/03 06:26:26;;;;;;;25.90;3.15;;;;;;;8.96;100.00;98860.38;5033920;28;20041;-74
2024/01/03 06:28:51;;;;;;;21.20;3.22;;;;;;;8.94;100.00;98851.81;5023473;28;20286;-74
2024/01/03 06:31:23;;;;;;;21.63;2.97;;;;;;;8.94;100.00;98854.41;5033306;28;20120;-74
2024/01/03 06:33:48;;;;;;;15.73;2.80;;;;;;;8.93;100.00;98867.56;5024795;28;20037;-74
2024/01/03 06:36:14;;;;;;;24.27;2.80;;;;;;;8.84;100.00;98850.72;5024543;28;20037;-74
2024/01/03 06:38:39;;;;;;;20.52;3.08;;;;;;;8.87;100.00;98854.94;5026707;28;20025;-74
2024/01/03 06:41:06;;;;;;;16.40;2.60;;;;;;;8.78;100.00;98851.13;5024857;28;20033;-73
2024/01/03 06:43:31;;;;;;;22.00;2.50;;;;;;;8.84;100.00;98869.84;5026668;28;20092;-72
2024/01/03 06:45:57;;;;;;;16.75;2.25;;;;;;;8.74;100.00;98873.16;5023172;28;20135;-73
2024/01/03 06:48:22;;;;;;;29.23;2.67;;;;;;;8.75;100.00;98873.06;5024047;28;20026;-73
2024/01/03 06:50:47;;;;;;;18.23;2.10;;;;;;;8.69;100.00;98870.00;5025918;28;20403;-73
2024/01/03 06:53:13;;;;;;;18.25;2.00;;;;;;;8.78;100.00;98872.00;5027360;28;20040;-74
2024/01/03 06:55:39;;;;;;;16.55;2.47;;;;;;;8.67;100.00;98885.75;5025364;28;20167;-74
2024/01/03 06:58:05;;;;;;;20.98;2.80;;;;;;;8.70;100.00;98869.06;5025579;28;20061;-74
2024/01/03 07:00:30;;;;;;;20.80;2.83;;;;;;;8.67;100.00;98874.47;5029167;28;20052;-74
2024/01/03 07:02:55;;;;;;;20.10;3.30;;;;;;;8.68;100.00;98881.34;5037219;28;20032;-74
2024/01/03 07:05:21;;;;;;;21.83;2.30;;;;;;;8.61;100.00;98886.97;5020695;28;20033;-74
2024/01/03 07:07:46;;;;;;;19.60;2.85;;;;;;;8.60;100.00;98900.13;5040133;28;20412;-74
2024/01/03 07:10:12;;;;;;;12.98;2.58;;;;;;;8.62;100.00;98883.44;5047936;28;20367;-74
2024/01/03 07:12:38;;;;;;;21.85;2.40;;;;;;;8.62;100.00;98888.66;5026887;28;20056;-74
2024/01/03 07:15:05;;;;;;;24.65;3.13;;;;;;;8.65;100.00;98903.28;5054154;28;20029;-74
2024/01/03 07:17:30;;;;;;;29.95;3.13;;;;;;;8.67;100.00;98890.16;5043584;28;20045;-74
2024/01/03 07:19:57;;;;;;;19.63;3.60;;;;;;;8.70;100.00;98893.41;5036872;28;20049;-74
2024/01/03 07:22:23;;;;;;;25.33;3.55;;;;;;;8.71;100.00;98895.06;5040045;28;20017;-74
2024/01/03 07:24:49;;;;;;;30.55;2.67;;;;;;;8.70;100.00;98898.63;5035115;28;20042;-74
2024/01/03 07:27:15;;;;;;;21.40;3.40;;;;;;;8.71;100.00;98910.72;5034567;28;20036;-74
2024/01/03 07:29:41;;;;;;;29.08;3.10;;;;;;;8.76;100.00;98910.44;5034785;28;20104;-74
2024/01/03 07:32:06;;;;;;;25.02;2.72;;;;;;;8.76;100.00;98900.00;5028380;28;20340;-74
2024/01/03 07:34:32;;;;;;;27.60;3.72;;;;;;;8.77;100.00;98910.34;5037447;28;20035;-74
2024/01/03 07:36:57;;;;;;;28.77;3.83;;;;;;;8.80;100.00;98904.06;5046968;28;20033;-74
2024/01/03 07:39:23;;;;;;;24.30;3.05;;;;;;;8.81;100.00;98917.03;5034216;28;20389;-74
2024/01/03 07:41:49;;;;;;;24.13;3.85;;;;;;;8.84;100.00;98916.84;5033376;28;20300;-74
2024/01/03 07:44:14;;;;;;;23.95;3.63;;;;;;;8.85;100.00;98902.00;5033769;28;20293;-74
2024/01/03 07:46:40;;;;;;;27.67;4.22;;;;;;;8.89;100.00;98910.47;5028928;28;20059;-74
2024/01/03 07:49:05;;;;;;;29.60;3.90;;;;;;;8.92;100.00;98912.91;5033447;28;20037;-74
2024/01/03 07:51:30;;;;;;;23.10;3.22;;;;;;;8.94;100.00;98919.69;5034784;28;20048;-74
2024/01/03 07:53:56;;;;;;;27.45;4.22;;;;;;;8.94;100.00;98919.69;5040865;28;20309;-74
2024/01/03 07:56:21;;;;;;;37.38;3.50;;;;;;;8.94;100.00;98919.69;5046573;28;20352;-74
2024/01/03 07:58:47;;;;;;;23.58;3.03;;;;;;;8.93;100.00;98930.22;5033318;28;20220;-74
2024/01/03 08:01:12;;;;;;;15.00;2.95;;;;;;;8.93;100.00;98948.50;5034308;28;20040;-74
2024/01/03 08:03:37;;;;;;;21.67;4.07;;;;;;;8.95;100.00;98931.81;5032541;28;20108;-74
2024/01/03 08:06:03;;;;;;;29.17;3.92;;;;;;;8.94;100.00;98930.13;5033831;28;20059;-74
2024/01/03 08:08:29;;;;;;;31.92;3.25;;;;;;;8.95;100.00;98938.78;5022149;28;20034;-74
2024/01/03 08:10:54;;;;;;;25.70;3.63;;;;;;;8.96;100.00;98943.91;5036071;28;20348;-74
2024/01/03 08:13:20;;;;;;;28.17;3.97;;;;;;;8.99;100.00;98935.06;5037802;28;20349;-74
2024/01/03 08:15:45;;;;;;;23.45;4.05;;;;;;;8.99;100.00;98940.28;5041671;28;20130;-74
2024/01/03 08:18:11;;;;;;;22.02;2.92;;;;;;;9.02;100.00;98953.13;5036567;28;20383;-74
2024/01/03 08:20:36;;;;;;;21.73;3.33;;;;;;;9.01;100.00;98949.69;5032850;28;20276;-74
2024/01/03 08:23:02;;;;;;;30.48;4.38;;;;;;;9.01;100.00;98941.84;5025633;28;20214;-74
2024/01/03 08:25:27;;;;;;;26.30;3.63;;;;;;;9.02;100.00;98943.53;5028813;28;20033;-74
2024/01/03 08:27:52;;;;;;;32.92;3.53;;;;;;;9.01;100.00;98949.69;5032732;28;20060;-74
2024/01/03 08:30:18;;;;;;;26.98;2.78;;;;;;;8.98;100.00;98951.66;5031676;28;20111;-73
2024/01/03 08:32:44;;;;;;;29.48;3.83;;;;;;;8.99;100.00;98964.63;5033528;28;20037;-74
2024/01/03 08:35:09;;;;;;;28.75;4.13;;;;;;;9.01;100.00;98956.69;5032142;28;20040;-74
2024/01/03 08:37:35;;;;;;;20.08;3.72;;;;;;;9.02;100.00;98958.34;5043093;28;20048;-74
2024/01/03 08:40:03;;;;;;;27.23;3.85;;;;;;;9.01;100.00;98954.91;5033729;28;20036;-74
2024/01/03 08:42:29;;;;;;;19.75;2.40;;;;;;;9.02;100.00;98958.34;5032199;28;20045;-74
2024/01/03 08:44:54;;;;;;;20.80;3.22;;;;;;;9.05;100.00;98957.34;5033049;28;20064;-74
2024/01/03 08:47:19;;;;;;;21.65;3.10;;;;;;;9.06;100.00;98974.66;5031094;28;20033;-74
2024/01/03 08:49:45;;;;;;;31.77;3.95;;;;;;;9.07;100.00;98955.47;5026370;28;20340;-74
2024/01/03 08:52:10;;;;;;;19.90;3.30;;;;;;;9.08;100.00;98962.34;5025159;28;20340;-74
2024/01/03 08:54:36;;;;;;;17.77;2.63;;;;;;;9.10;100.00;98963.94;5032125;28;20041;-74
2024/01/03 08:57:01;;;;;;;23.10;3.63;;;;;;;9.11;100.00;98962.16;5028803;28;20252;-74
2024/01/03 08:59:27;;;;;;;19.52;2.95;;;;;;;9.13;100.00;98965.50;5028035;28;20091;-74
2024/01/03 09:01:52;;;;;;;24.10;3.65;;;;;;;9.15;100.00;98974.94;5028304;28;20035;-74
2024/01/03 09:04:18;;;;;;;16.75;2.55;;;;;;;9.15;100.00;98967.09;5029447;28;20217;-74
2024/01/03 09:06:43;;;;;;;34.30;3.28;;;;;;;9.17;100.00;98967.00;5033469;28;20036;-73
2024/01/03 09:09:09;;;;;;;20.05;3.90;;;;;;;9.13;100.00;98982.03;5034152;28;20029;-74
2024/01/03 09:11:34;;;;;;;24.55;2.60;;;;;;;9.07;100.00;98964.13;5039240;28;20212;-74
2024/01/03 09:13:59;;;;;;;15.98;2.33;;;;;;;8.99;100.00;98979.47;5039078;28;20108;-74
2024/01/03 09:16:30;;;;;;;24.45;3.08;;;;;;;8.99;100.00;99006.41;5039426;28;20034;-74
2024/01/03 09:18:56;;;;;;;19.77;4.03;;;;;;;8.94;100.00;98998.00;5035034;28;20028;-74
2024/01/03 09:21:21;;;;;;;29.65;3.95;;;;;;;8.94;100.00;99011.06;5016921;28;20368;-74
2024/01/03 09:23:47;;;;;;;28.00;3.88;;;;;;;8.92;100.00;98994.66;5038263;28;20044;-74
2024/01/03 09:26:15;;;;;;;35.17;4.07;;;;;;;8.91;100.00;99005.19;5030585;28;20028;-74
2024/01/03 09:28:41;;;;;;;23.02;3.47;;;;;;;8.88;100.00;99003.63;5028920;28;20041;-74
2024/01/03 09:31:07;;;;;;;21.85;2.53;;;;;;;8.90;100.00;99008.75;5027181;28;20037;-74
2024/01/03 09:33:33;;;;;;;22.20;3.22;;;;;;;8.90;100.00;99009.59;5029741;28;20052;-74
2024/01/03 09:35:58;;;;;;;21.42;3.22;;;;;;;8.89;100.00;99007.91;5026360;28;20067;-74
2024/01/03 09:38:23;;;;;;;29.02;3.30;;;;;;;8.89;100.00;99020.13;5033198;28;20033;-74
2024/01/03 09:40:50;;;;;;;21.48;3.53;;;;;;;8.87;100.00;99017.59;5029833;28;20462;-74
2024/01/03 09:43:16;;;;;;;21.40;2.42;;;;;;;8.88;100.00;99021.03;5031205;28;20159;-74
2024/01/03 09:45:41;;;;;;;18.83;3.05;;;;;;;8.89;100.00;99018.34;5031872;28;20356;-74
2024/01/03 09:48:09;;;;;;;23.27;3.42;;;;;;;8.89;100.00;99026.16;5029057;28;20025;-74
2024/01/03 09:50:34;;;;;;;19.40;3.15;;;;;;;8.90;100.00;99012.19;5031261;28;20513;-74
2024/01/03 09:53:00;;;;;;;19.83;2.80;;;;;;;8.93;100.00;99021.59;5030762;28;20037;-74
2024/01/03 09:55:27;;;;;;;24.77;2.88;;;;;;;8.96;100.00;99021.41;5032541;28;20370;-74
2024/01/03 09:57:54;;;;;;;23.05;3.10;;;;;;;9.01;100.00;99035.03;5030943;28;20037;-74
2024/01/03 10:00:20;;;;;;;23.88;2.67;;;;;;;9.02;100.00;99027.09;5030159;28;20029;-74
2024/01/03 10:02:47;;;;;;;26.17;3.75;;;;;;;9.01;100.00;99032.41;5031678;28;20030;-74
2024/01/03 10:05:22;;;;;;;27.30;3.65;;;;;;;9.02;100.00;99029.72;5030345;28;20033;-74
2024/01/03 10:07:47;;;;;;;30.77;3.33;;;;;;;9.03;100.00;99035.75;5030000;28;20033;-74
2024/01/03 10:10:28;;;;;;;34.00;3.50;;;;;;;9.01;100.00;99030.63;5028681;28;20387;-74
2024/01/03 10:12:53;;;;;;;14.60;2.60;;;;;;;9.05;100.00;99025.22;5030620;28;20319;-74
2024/01/03 10:15:19;;;;;;;15.55;2.97;;;;;;;9.08;100.00;99032.84;5030916;28;20112;-74
2024/01/03 10:17:45;;;;;;;26.08;3.85;;;;;;;9.08;100.00;99032.84;5029428;28;20037;-74
2024/01/03 10:20:28;;;;;;;21.90;3.40;;;;;;;9.12;100.00;99036.97;5030620;28;20018;-74
2024/01/03 10:23:14;;;;;;;20.38;3.42;;;;;;;9.14;100.00;99045.53;5028588;28;20045;-74
2024/01/03 10:25:41;;;;;;;20.95;3.28;;;;;;;9.16;100.00;99046.25;5030139;28;20092;-73
2024/01/03 10:28:11;;;;;;;26.27;3.15;;;;;;;9.21;100.00;99052.03;5030151;28;21109;-74
2024/01/03 10:30:36;;;;;;;18.33;3.50;;;;;;;9.23;100.00;99048.38;5030135;28;20044;-74
2024/01/03 10:33:06;;;;;;;20.95;2.67;;;;;;;9.25;100.00;99044.84;5029913;28;20041;-74
2024/01/03 10:35:34;;;;;;;19.77;3.30;;;;;;;9.26;100.00;99046.50;5028163;28;20044;-74
2024/01/03 10:38:01;;;;;;;30.80;3.42;;;;;;;9.24;100.00;99049.25;5028918;28;20041;-74
2024/01/03 10:40:34;;;;;;;24.08;2.88;;;;;;;9.25;100.00;99058.75;5031460;28;20032;-74
2024/01/03 10:43:00;;;;;;;24.85;2.67;;;;;;;9.25;100.00;99053.50;5028745;28;20107;-74
2024/01/03 10:45:27;;;;;;;22.45;3.33;;;;;;;9.26;100.00;99041.28;5035636;28;20265;-74
2024/01/03 10:47:53;;;;;;;20.85;2.80;;;;;;;9.26;100.00;99046.50;5047925;28;20039;-74
2024/01/03 10:50:20;;;;;;;20.33;3.55;;;;;;;9.27;100.00;99046.41;5043941;28;20320;-74
2024/01/03 10:52:46;;;;;;;28.80;4.30;;;;;;;9.29;100.00;99038.50;5047438;28;20043;-74
2024/01/03 10:55:20;;;;;;;20.33;2.72;;;;;;;9.32;100.00;99048.75;5047518;28;20083;-74
2024/01/03 10:58:01;;;;;;;26.33;3.53;;;;;;;9.34;100.00;99062.53;5040190;28;20041;-74
2024/01/03 11:00:30;;;;;;;18.08;2.92;;;;;;;9.40;100.00;99049.09;5037301;28;20079;-74
2024/01/03 11:03:18;;;;;;;18.43;2.70;;;;;;;9.43;100.00;99027.16;5038527;28;20336;-74
2024/01/03 11:05:46;;;;;;;27.23;3.88;;;;;;;9.47;100.00;99042.53;5042066;28;20283;-74
2024/01/03 11:08:14;;;;;;;20.47;3.70;;;;;;;9.52;100.00;99037.84;5041403;28;20041;-74
2024/01/03 11:10:51;;;;;;;27.08;3.95;;;;;;;9.53;100.00;99031.69;5037797;28;20040;-74
2024/01/03 11:13:38;;;;;;;26.65;2.95;;;;;;;9.54;100.00;99038.56;5038790;28;20072;-74
2024/01/03 11:16:05;;;;;;;33.50;4.72;;;;;;;9.56;100.00;99043.72;5036660;28;20036;-74
2024/01/03 11:18:39;;;;;;;26.52;4.72;;;;;;;9.57;100.00;99033.16;5038422;28;20037;-74
2024/01/03 11:21:27;;;;;;;35.03;3.45;;;;;;;9.56;100.00;99031.47;5032904;28;20063;-73
2024/01/03 11:23:55;;;;;;;30.92;3.58;;;;;;;9.54;100.00;99035.13;5033140;28;20102;-73